Hlavní strana
METAR-TAF:

METAR-TAF

Letiště :

Uppsala, Švédsko

zeměpisná šířka: 59-53N, zeměpisná délka: 017-36E, výška: 21 m

Aktuální stav počasí

Zpráva byla vytvořena před 48 minutami, v 05:50 UTC
Severoseverovýchodní vítr 6 kt
Teplota 7°C
Vlhkost vzduchu 100%
Tlak 1023 hPa
Viditelnost: 2000 m
kouřmo

METAR: ESCM 250550Z 02006KT 2000 BR VV003 07/07 Q1023

Čas: 08:38 (06:38 UTC)

Předpověď počasí

Zpráva byla vytvořena před 1 hodinou a 28 minutami, v 05:10 UTC
Předpověď platná od 25 v 05 UTC do 25 v 08 UTC
Severoseverovýchodní vítr 3 kt
Viditelnost: 0300 m
ve výšce 200 ft
mlha
Změna
od 25 v 05 UTC do 25 v 06 UTC
Severoseverovýchodní vítr 5 kt
Viditelnost: 5000 m
Polojasno ve výšce 1000 ft

TAF: ESCM 250510Z 2505/2508 02003KT 0300 FG VV002 BECMG 2505/2506 02005KT 5000 SCT010 RMK MIL

Stav a předpovědi počasí z více než 4 000 letišť (zprávy METAR a TAF).

Červené a žluté tečky na mapě představují dostupné meteorologické stanice.

Když kurzor umístíte na tečku, zobrazí se název stanice.

Pak kliknutím zobrazíte stav a předpověď počasí.

Chcete-li změnit mapu, kliknutím na zelené tlačítko se znaménkem +mapu přiblížíte, kliknutím na zelené tlačítko se znaménkem – mapu oddálíte a kliknutím na zelené šipky přejdete na sousední mapy.


METAR-TAF: